sensor_id;sensor_type;location;lat;lon;timestamp;temperature;humidity
2657;DHT22;1338;48.176;11.792;2023-09-07T00:00:39;11.60;1.00
2657;DHT22;1338;48.176;11.792;2023-09-07T00:03:07;11.70;1.00
2657;DHT22;1338;48.176;11.792;2023-09-07T00:05:36;12.00;1.00
2657;DHT22;1338;48.176;11.792;2023-09-07T00:08:04;12.10;1.00
2657;DHT22;1338;48.176;11.792;2023-09-07T00:10:33;12.20;1.00
2657;DHT22;1338;48.176;11.792;2023-09-07T00:13:04;11.90;1.00
2657;DHT22;1338;48.176;11.792;2023-09-07T00:15:36;11.80;1.00
2657;DHT22;1338;48.176;11.792;2023-09-07T00:18:04;11.70;1.00
2657;DHT22;1338;48.176;11.792;2023-09-07T00:20:33;11.80;87.30
2657;DHT22;1338;48.176;11.792;2023-09-07T00:23:01;11.60;1.00
2657;DHT22;1338;48.176;11.792;2023-09-07T00:25:30;11.40;1.00
2657;DHT22;1338;48.176;11.792;2023-09-07T00:27:58;11.20;1.00
2657;DHT22;1338;48.176;11.792;2023-09-07T00:30:28;11.30;1.00
2657;DHT22;1338;48.176;11.792;2023-09-07T00:32:56;11.50;1.00
2657;DHT22;1338;48.176;11.792;2023-09-07T00:35:24;11.70;1.00
2657;DHT22;1338;48.176;11.792;2023-09-07T00:37:52;12.00;99.90
2657;DHT22;1338;48.176;11.792;2023-09-07T00:40:21;12.10;16.20
2657;DHT22;1338;48.176;11.792;2023-09-07T00:42:50;12.00;1.00
2657;DHT22;1338;48.176;11.792;2023-09-07T00:45:18;11.80;1.00
2657;DHT22;1338;48.176;11.792;2023-09-07T00:47:48;11.40;1.00
2657;DHT22;1338;48.176;11.792;2023-09-07T00:50:17;11.20;1.00
2657;DHT22;1338;48.176;11.792;2023-09-07T00:52:46;11.10;1.00
2657;DHT22;1338;48.176;11.792;2023-09-07T00:55:15;11.20;1.00
2657;DHT22;1338;48.176;11.792;2023-09-07T00:57:43;11.30;1.00
2657;DHT22;1338;48.176;11.792;2023-09-07T01:00:12;11.60;1.00
2657;DHT22;1338;48.176;11.792;2023-09-07T01:02:41;11.50;1.00
2657;DHT22;1338;48.176;11.792;2023-09-07T01:05:13;11.50;1.00
2657;DHT22;1338;48.176;11.792;2023-09-07T01:07:44;11.30;1.00
2657;DHT22;1338;48.176;11.792;2023-09-07T01:10:14;11.80;1.00
2657;DHT22;1338;48.176;11.792;2023-09-07T01:12:43;11.90;1.00
2657;DHT22;1338;48.176;11.792;2023-09-07T01:15:11;11.80;1.00
2657;DHT22;1338;48.176;11.792;2023-09-07T01:17:40;11.60;1.00
2657;DHT22;1338;48.176;11.792;2023-09-07T01:20:10;11.40;1.00
2657;DHT22;1338;48.176;11.792;2023-09-07T01:22:46;11.10;1.00
2657;DHT22;1338;48.176;11.792;2023-09-07T01:25:15;11.20;1.00
2657;DHT22;1338;48.176;11.792;2023-09-07T01:27:43;11.20;1.00
2657;DHT22;1338;48.176;11.792;2023-09-07T01:30:12;11.30;1.00
2657;DHT22;1338;48.176;11.792;2023-09-07T01:32:40;11.30;1.00
2657;DHT22;1338;48.176;11.792;2023-09-07T01:35:10;11.40;1.00
2657;DHT22;1338;48.176;11.792;2023-09-07T01:37:39;11.50;1.00
2657;DHT22;1338;48.176;11.792;2023-09-07T01:40:09;11.40;1.00
2657;DHT22;1338;48.176;11.792;2023-09-07T01:42:37;11.50;1.00
2657;DHT22;1338;48.176;11.792;2023-09-07T01:45:07;11.70;1.00
2657;DHT22;1338;48.176;11.792;2023-09-07T01:47:35;11.50;1.00
2657;DHT22;1338;48.176;11.792;2023-09-07T01:50:05;11.70;1.00
2657;DHT22;1338;48.176;11.792;2023-09-07T01:52:33;12.00;1.00
2657;DHT22;1338;48.176;11.792;2023-09-07T01:55:01;11.90;1.00
2657;DHT22;1338;48.176;11.792;2023-09-07T01:57:31;11.60;1.00
2657;DHT22;1338;48.176;11.792;2023-09-07T01:59:59;11.70;1.00
2657;DHT22;1338;48.176;11.792;2023-09-07T02:02:28;11.70;1.00
2657;DHT22;1338;48.176;11.792;2023-09-07T02:04:56;11.40;1.00
2657;DHT22;1338;48.176;11.792;2023-09-07T02:07:24;11.40;1.00
2657;DHT22;1338;48.176;11.792;2023-09-07T02:09:52;11.50;1.00
2657;DHT22;1338;48.176;11.792;2023-09-07T02:12:21;11.50;1.00
2657;DHT22;1338;48.176;11.792;2023-09-07T02:14:50;11.00;1.00
2657;DHT22;1338;48.176;11.792;2023-09-07T02:17:19;10.60;1.00
2657;DHT22;1338;48.176;11.792;2023-09-07T02:19:48;10.30;1.00
2657;DHT22;1338;48.176;11.792;2023-09-07T02:22:17;10.60;1.00
2657;DHT22;1338;48.176;11.792;2023-09-07T02:24:45;10.70;1.00
2657;DHT22;1338;48.176;11.792;2023-09-07T02:27:13;10.80;1.00
2657;DHT22;1338;48.176;11.792;2023-09-07T02:29:41;11.10;69.00
2657;DHT22;1338;48.176;11.792;2023-09-07T02:32:12;11.30;99.90
2657;DHT22;1338;48.176;11.792;2023-09-07T02:34:40;11.40;1.00
2657;DHT22;1338;48.176;11.792;2023-09-07T02:37:09;11.40;31.50
2657;DHT22;1338;48.176;11.792;2023-09-07T02:39:38;11.50;27.80
2657;DHT22;1338;48.176;11.792;2023-09-07T02:42:06;11.40;1.00
2657;DHT22;1338;48.176;11.792;2023-09-07T02:44:37;11.30;1.00
2657;DHT22;1338;48.176;11.792;2023-09-07T02:47:06;11.40;1.00
2657;DHT22;1338;48.176;11.792;2023-09-07T02:49:40;12.00;1.00
2657;DHT22;1338;48.176;11.792;2023-09-07T02:52:08;12.80;99.90
2657;DHT22;1338;48.176;11.792;2023-09-07T02:54:36;13.00;1.00
2657;DHT22;1338;48.176;11.792;2023-09-07T02:57:05;12.40;99.90
2657;DHT22;1338;48.176;11.792;2023-09-07T02:59:33;12.20;1.00
2657;DHT22;1338;48.176;11.792;2023-09-07T03:02:01;11.90;1.00
2657;DHT22;1338;48.176;11.792;2023-09-07T03:04:29;11.80;1.00
2657;DHT22;1338;48.176;11.792;2023-09-07T03:07:00;11.40;1.00
2657;DHT22;1338;48.176;11.792;2023-09-07T03:09:28;10.70;1.00
2657;DHT22;1338;48.176;11.792;2023-09-07T03:11:57;10.50;1.00
2657;DHT22;1338;48.176;11.792;2023-09-07T03:14:25;10.80;99.90
2657;DHT22;1338;48.176;11.792;2023-09-07T03:16:54;10.70;3.50
2657;DHT22;1338;48.176;11.792;2023-09-07T03:19:22;10.30;1.00
2657;DHT22;1338;48.176;11.792;2023-09-07T03:21:50;10.10;1.00
2657;DHT22;1338;48.176;11.792;2023-09-07T03:24:20;10.00;26.10
2657;DHT22;1338;48.176;11.792;2023-09-07T03:26:48;10.20;99.90
2657;DHT22;1338;48.176;11.792;2023-09-07T03:29:16;9.80;99.90
2657;DHT22;1338;48.176;11.792;2023-09-07T03:31:45;10.10;99.90
2657;DHT22;1338;48.176;11.792;2023-09-07T03:34:13;9.70;86.50
2657;DHT22;1338;48.176;11.792;2023-09-07T03:36:41;9.80;99.90
2657;DHT22;1338;48.176;11.792;2023-09-07T03:39:10;9.50;99.90
2657;DHT22;1338;48.176;11.792;2023-09-07T03:41:39;9.70;99.90
2657;DHT22;1338;48.176;11.792;2023-09-07T03:44:07;10.20;1.00
2657;DHT22;1338;48.176;11.792;2023-09-07T03:46:36;9.60;99.90
2657;DHT22;1338;48.176;11.792;2023-09-07T03:49:04;9.80;99.90
2657;DHT22;1338;48.176;11.792;2023-09-07T03:51:33;9.80;99.90
2657;DHT22;1338;48.176;11.792;2023-09-07T03:54:01;9.80;99.90
2657;DHT22;1338;48.176;11.792;2023-09-07T03:56:29;10.10;99.90
2657;DHT22;1338;48.176;11.792;2023-09-07T03:58:59;9.60;99.90
2657;DHT22;1338;48.176;11.792;2023-09-07T04:01:27;9.80;1.00
2657;DHT22;1338;48.176;11.792;2023-09-07T04:03:56;10.00;1.00
2657;DHT22;1338;48.176;11.792;2023-09-07T04:06:24;9.90;1.00
2657;DHT22;1338;48.176;11.792;2023-09-07T04:08:53;9.80;1.00
2657;DHT22;1338;48.176;11.792;2023-09-07T04:11:21;9.70;1.00
2657;DHT22;1338;48.176;11.792;2023-09-07T04:13:49;9.70;1.00
2657;DHT22;1338;48.176;11.792;2023-09-07T04:16:18;9.70;1.00
2657;DHT22;1338;48.176;11.792;2023-09-07T04:18:47;9.70;1.00
2657;DHT22;1338;48.176;11.792;2023-09-07T04:21:15;9.50;1.00
2657;DHT22;1338;48.176;11.792;2023-09-07T04:23:44;9.70;1.00
2657;DHT22;1338;48.176;11.792;2023-09-07T04:26:12;9.80;1.00
2657;DHT22;1338;48.176;11.792;2023-09-07T04:28:40;9.80;1.00
2657;DHT22;1338;48.176;11.792;2023-09-07T04:31:09;9.70;1.00
2657;DHT22;1338;48.176;11.792;2023-09-07T04:33:39;9.70;1.00
2657;DHT22;1338;48.176;11.792;2023-09-07T04:36:09;9.20;99.90
2657;DHT22;1338;48.176;11.792;2023-09-07T04:38:38;9.40;1.00
2657;DHT22;1338;48.176;11.792;2023-09-07T04:41:07;9.30;1.00
2657;DHT22;1338;48.176;11.792;2023-09-07T04:43:36;9.60;1.00
2657;DHT22;1338;48.176;11.792;2023-09-07T04:46:04;9.70;1.00
2657;DHT22;1338;48.176;11.792;2023-09-07T04:48:33;9.50;99.90
2657;DHT22;1338;48.176;11.792;2023-09-07T04:51:04;9.60;99.90
2657;DHT22;1338;48.176;11.792;2023-09-07T04:53:34;9.90;1.00
2657;DHT22;1338;48.176;11.792;2023-09-07T04:56:06;10.20;1.00
2657;DHT22;1338;48.176;11.792;2023-09-07T04:58:36;9.60;99.90
2657;DHT22;1338;48.176;11.792;2023-09-07T05:01:05;9.60;99.90
2657;DHT22;1338;48.176;11.792;2023-09-07T05:03:37;10.00;99.90
2657;DHT22;1338;48.176;11.792;2023-09-07T05:06:10;10.50;1.00
2657;DHT22;1338;48.176;11.792;2023-09-07T05:08:39;10.20;99.90
2657;DHT22;1338;48.176;11.792;2023-09-07T05:11:07;10.30;99.90
2657;DHT22;1338;48.176;11.792;2023-09-07T05:13:35;10.10;99.90
2657;DHT22;1338;48.176;11.792;2023-09-07T05:16:04;10.30;99.90
2657;DHT22;1338;48.176;11.792;2023-09-07T05:18:35;10.00;99.90
2657;DHT22;1338;48.176;11.792;2023-09-07T05:21:16;9.90;99.90
2657;DHT22;1338;48.176;11.792;2023-09-07T05:23:47;9.60;99.90
2657;DHT22;1338;48.176;11.792;2023-09-07T05:26:23;9.70;99.90
2657;DHT22;1338;48.176;11.792;2023-09-07T05:28:54;10.00;99.90
2657;DHT22;1338;48.176;11.792;2023-09-07T05:31:24;10.10;99.90
2657;DHT22;1338;48.176;11.792;2023-09-07T05:33:56;10.10;99.90
2657;DHT22;1338;48.176;11.792;2023-09-07T05:36:38;10.20;99.90
2657;DHT22;1338;48.176;11.792;2023-09-07T05:39:08;10.40;99.90
2657;DHT22;1338;48.176;11.792;2023-09-07T05:41:38;10.40;99.90
2657;DHT22;1338;48.176;11.792;2023-09-07T05:44:07;10.50;99.90
2657;DHT22;1338;48.176;11.792;2023-09-07T05:46:36;10.60;99.90
2657;DHT22;1338;48.176;11.792;2023-09-07T05:49:05;10.70;99.90
2657;DHT22;1338;48.176;11.792;2023-09-07T05:51:37;11.00;99.90
2657;DHT22;1338;48.176;11.792;2023-09-07T05:54:06;10.80;99.90
2657;DHT22;1338;48.176;11.792;2023-09-07T05:56:35;10.90;99.90
2657;DHT22;1338;48.176;11.792;2023-09-07T05:59:04;10.90;56.20
2657;DHT22;1338;48.176;11.792;2023-09-07T06:01:32;11.00;93.00
2657;DHT22;1338;48.176;11.792;2023-09-07T06:04:00;11.10;1.00
2657;DHT22;1338;48.176;11.792;2023-09-07T06:06:29;11.10;1.00
2657;DHT22;1338;48.176;11.792;2023-09-07T06:09:00;11.20;1.00
2657;DHT22;1338;48.176;11.792;2023-09-07T06:11:31;11.40;1.00
2657;DHT22;1338;48.176;11.792;2023-09-07T06:14:01;11.60;1.00
2657;DHT22;1338;48.176;11.792;2023-09-07T06:16:31;11.80;1.00
2657;DHT22;1338;48.176;11.792;2023-09-07T06:18:59;12.20;1.00
2657;DHT22;1338;48.176;11.792;2023-09-07T06:21:31;12.50;1.00
2657;DHT22;1338;48.176;11.792;2023-09-07T06:24:03;12.80;1.00
2657;DHT22;1338;48.176;11.792;2023-09-07T06:26:35;12.90;1.00
2657;DHT22;1338;48.176;11.792;2023-09-07T06:29:04;13.10;1.00
2657;DHT22;1338;48.176;11.792;2023-09-07T06:31:33;13.50;99.90
2657;DHT22;1338;48.176;11.792;2023-09-07T06:34:02;13.60;99.90
2657;DHT22;1338;48.176;11.792;2023-09-07T06:36:33;13.90;1.00
2657;DHT22;1338;48.176;11.792;2023-09-07T06:39:18;14.00;99.90
2657;DHT22;1338;48.176;11.792;2023-09-07T06:41:48;14.00;99.90
2657;DHT22;1338;48.176;11.792;2023-09-07T06:44:20;14.30;1.00
2657;DHT22;1338;48.176;11.792;2023-09-07T06:46:52;14.50;1.00
2657;DHT22;1338;48.176;11.792;2023-09-07T06:49:21;14.60;50.50
2657;DHT22;1338;48.176;11.792;2023-09-07T06:51:51;14.60;35.00
2657;DHT22;1338;48.176;11.792;2023-09-07T06:54:23;14.70;20.10
2657;DHT22;1338;48.176;11.792;2023-09-07T06:56:53;14.90;1.00
2657;DHT22;1338;48.176;11.792;2023-09-07T06:59:26;14.90;1.00
2657;DHT22;1338;48.176;11.792;2023-09-07T07:01:57;15.00;1.00
2657;DHT22;1338;48.176;11.792;2023-09-07T07:04:27;15.60;1.00
2657;DHT22;1338;48.176;11.792;2023-09-07T07:07:09;15.90;1.00
2657;DHT22;1338;48.176;11.792;2023-09-07T07:09:43;16.20;1.00
2657;DHT22;1338;48.176;11.792;2023-09-07T07:12:20;16.70;1.00
2657;DHT22;1338;48.176;11.792;2023-09-07T07:15:02;16.40;1.00
2657;DHT22;1338;48.176;11.792;2023-09-07T07:18:11;16.20;1.00
2657;DHT22;1338;48.176;11.792;2023-09-07T07:20:44;16.10;99.90
2657;DHT22;1338;48.176;11.792;2023-09-07T07:23:31;16.60;1.00
2657;DHT22;1338;48.176;11.792;2023-09-07T07:26:50;16.80;1.00
2657;DHT22;1338;48.176;11.792;2023-09-07T07:29:58;17.20;99.90
2657;DHT22;1338;48.176;11.792;2023-09-07T07:32:49;17.20;99.90
2657;DHT22;1338;48.176;11.792;2023-09-07T07:35:35;16.90;99.90
2657;DHT22;1338;48.176;11.792;2023-09-07T07:38:14;17.30;99.90
2657;DHT22;1338;48.176;11.792;2023-09-07T07:41:02;18.30;99.90
2657;DHT22;1338;48.176;11.792;2023-09-07T07:44:35;17.60;99.90
2657;DHT22;1338;48.176;11.792;2023-09-07T07:47:42;17.40;99.90
2657;DHT22;1338;48.176;11.792;2023-09-07T07:50:47;17.50;99.90
2657;DHT22;1338;48.176;11.792;2023-09-07T07:53:44;17.90;99.90
2657;DHT22;1338;48.176;11.792;2023-09-07T07:57:32;18.10;99.90
2657;DHT22;1338;48.176;11.792;2023-09-07T08:01:49;17.90;99.90
2657;DHT22;1338;48.176;11.792;2023-09-07T08:04:59;17.70;99.90
2657;DHT22;1338;48.176;11.792;2023-09-07T08:07:28;18.00;99.90
2657;DHT22;1338;48.176;11.792;2023-09-07T08:09:58;18.10;99.90
2657;DHT22;1338;48.176;11.792;2023-09-07T08:13:07;18.00;99.90
2657;DHT22;1338;48.176;11.792;2023-09-07T08:15:36;18.20;99.90
2657;DHT22;1338;48.176;11.792;2023-09-07T08:18:08;18.70;99.90
2657;DHT22;1338;48.176;11.792;2023-09-07T08:20:37;18.60;99.90
2657;DHT22;1338;48.176;11.792;2023-09-07T08:23:07;18.50;99.90
2657;DHT22;1338;48.176;11.792;2023-09-07T08:25:38;18.50;99.90
2657;DHT22;1338;48.176;11.792;2023-09-07T08:28:14;18.90;99.90
2657;DHT22;1338;48.176;11.792;2023-09-07T08:30:43;19.10;99.90
2657;DHT22;1338;48.176;11.792;2023-09-07T08:33:14;19.00;99.90
2657;DHT22;1338;48.176;11.792;2023-09-07T08:35:43;19.40;99.90
2657;DHT22;1338;48.176;11.792;2023-09-07T08:38:14;18.80;55.00
2657;DHT22;1338;48.176;11.792;2023-09-07T08:40:44;18.90;99.90
2657;DHT22;1338;48.176;11.792;2023-09-07T08:43:15;19.20;99.90
2657;DHT22;1338;48.176;11.792;2023-09-07T08:45:51;19.40;95.90
2657;DHT22;1338;48.176;11.792;2023-09-07T08:48:26;19.60;89.30
2657;DHT22;1338;48.176;11.792;2023-09-07T08:50:57;19.50;15.10
2657;DHT22;1338;48.176;11.792;2023-09-07T08:53:26;19.30;4.90
2657;DHT22;1338;48.176;11.792;2023-09-07T08:55:55;19.30;1.00
2657;DHT22;1338;48.176;11.792;2023-09-07T08:58:24;19.40;2.40
2657;DHT22;1338;48.176;11.792;2023-09-07T09:00:55;19.60;1.00
2657;DHT22;1338;48.176;11.792;2023-09-07T09:03:35;20.00;19.00
2657;DHT22;1338;48.176;11.792;2023-09-07T09:06:04;20.00;1.00
2657;DHT22;1338;48.176;11.792;2023-09-07T09:08:52;19.80;1.00
2657;DHT22;1338;48.176;11.792;2023-09-07T09:11:23;19.70;1.00
2657;DHT22;1338;48.176;11.792;2023-09-07T09:13:53;20.20;1.00
2657;DHT22;1338;48.176;11.792;2023-09-07T09:16:22;20.00;1.00
2657;DHT22;1338;48.176;11.792;2023-09-07T09:18:54;20.30;1.00
2657;DHT22;1338;48.176;11.792;2023-09-07T09:21:24;20.20;1.00
2657;DHT22;1338;48.176;11.792;2023-09-07T09:23:55;20.40;1.00
2657;DHT22;1338;48.176;11.792;2023-09-07T09:26:24;20.30;1.00
2657;DHT22;1338;48.176;11.792;2023-09-07T09:28:57;20.60;1.00
2657;DHT22;1338;48.176;11.792;2023-09-07T09:31:26;20.70;1.00
2657;DHT22;1338;48.176;11.792;2023-09-07T09:33:56;21.10;1.00
2657;DHT22;1338;48.176;11.792;2023-09-07T09:36:34;21.40;1.00
2657;DHT22;1338;48.176;11.792;2023-09-07T09:39:04;20.90;1.00
2657;DHT22;1338;48.176;11.792;2023-09-07T09:41:32;20.70;1.00
2657;DHT22;1338;48.176;11.792;2023-09-07T09:44:05;21.40;1.00
2657;DHT22;1338;48.176;11.792;2023-09-07T09:46:36;21.80;1.00
2657;DHT22;1338;48.176;11.792;2023-09-07T09:49:14;21.70;1.00
2657;DHT22;1338;48.176;11.792;2023-09-07T09:51:48;21.60;1.00
2657;DHT22;1338;48.176;11.792;2023-09-07T09:54:18;22.00;1.00
2657;DHT22;1338;48.176;11.792;2023-09-07T09:56:46;21.80;1.00
2657;DHT22;1338;48.176;11.792;2023-09-07T09:59:16;22.10;1.00
2657;DHT22;1338;48.176;11.792;2023-09-07T10:01:47;21.90;1.00
2657;DHT22;1338;48.176;11.792;2023-09-07T10:04:22;22.40;1.00
2657;DHT22;1338;48.176;11.792;2023-09-07T10:06:54;22.30;1.00
2657;DHT22;1338;48.176;11.792;2023-09-07T10:09:23;22.80;1.00
2657;DHT22;1338;48.176;11.792;2023-09-07T10:11:58;22.70;1.00
2657;DHT22;1338;48.176;11.792;2023-09-07T10:14:38;22.20;1.00
2657;DHT22;1338;48.176;11.792;2023-09-07T10:17:09;22.60;1.00
2657;DHT22;1338;48.176;11.792;2023-09-07T10:19:39;22.50;1.00
2657;DHT22;1338;48.176;11.792;2023-09-07T10:22:21;22.80;1.00
2657;DHT22;1338;48.176;11.792;2023-09-07T10:24:57;22.80;1.00
2657;DHT22;1338;48.176;11.792;2023-09-07T10:27:36;22.70;1.00
2657;DHT22;1338;48.176;11.792;2023-09-07T10:30:10;23.10;1.00
2657;DHT22;1338;48.176;11.792;2023-09-07T10:32:40;22.80;1.00
2657;DHT22;1338;48.176;11.792;2023-09-07T10:35:14;23.30;1.00
2657;DHT22;1338;48.176;11.792;2023-09-07T10:37:47;23.60;1.00
2657;DHT22;1338;48.176;11.792;2023-09-07T10:40:20;23.50;1.00
2657;DHT22;1338;48.176;11.792;2023-09-07T10:43:00;23.20;1.00
2657;DHT22;1338;48.176;11.792;2023-09-07T10:45:28;23.80;1.00
2657;DHT22;1338;48.176;11.792;2023-09-07T10:47:59;24.40;1.00
2657;DHT22;1338;48.176;11.792;2023-09-07T10:50:29;23.30;1.00
2657;DHT22;1338;48.176;11.792;2023-09-07T10:52:59;23.70;1.00
2657;DHT22;1338;48.176;11.792;2023-09-07T10:55:36;24.00;1.00
2657;DHT22;1338;48.176;11.792;2023-09-07T10:58:05;24.30;1.00
2657;DHT22;1338;48.176;11.792;2023-09-07T11:00:37;24.70;1.00
2657;DHT22;1338;48.176;11.792;2023-09-07T11:03:10;24.50;1.00
2657;DHT22;1338;48.176;11.792;2023-09-07T11:05:42;24.70;1.00
2657;DHT22;1338;48.176;11.792;2023-09-07T11:08:13;24.00;1.00
2657;DHT22;1338;48.176;11.792;2023-09-07T11:10:42;24.20;1.00
2657;DHT22;1338;48.176;11.792;2023-09-07T11:13:11;24.80;1.00
2657;DHT22;1338;48.176;11.792;2023-09-07T11:15:42;24.60;1.00
2657;DHT22;1338;48.176;11.792;2023-09-07T11:18:12;24.70;1.00
2657;DHT22;1338;48.176;11.792;2023-09-07T11:20:43;25.00;1.00
2657;DHT22;1338;48.176;11.792;2023-09-07T11:23:11;24.90;1.00
2657;DHT22;1338;48.176;11.792;2023-09-07T11:25:43;24.90;1.00
2657;DHT22;1338;48.176;11.792;2023-09-07T11:28:14;24.80;1.00
2657;DHT22;1338;48.176;11.792;2023-09-07T11:30:51;25.40;1.00
2657;DHT22;1338;48.176;11.792;2023-09-07T11:33:25;24.60;1.00
2657;DHT22;1338;48.176;11.792;2023-09-07T11:35:55;25.10;1.00
2657;DHT22;1338;48.176;11.792;2023-09-07T11:38:29;25.10;1.00
2657;DHT22;1338;48.176;11.792;2023-09-07T11:41:02;25.40;1.00
2657;DHT22;1338;48.176;11.792;2023-09-07T11:43:31;25.30;1.00
2657;DHT22;1338;48.176;11.792;2023-09-07T11:46:01;25.60;1.00
2657;DHT22;1338;48.176;11.792;2023-09-07T11:48:31;26.00;1.00
2657;DHT22;1338;48.176;11.792;2023-09-07T11:51:02;26.60;1.00
2657;DHT22;1338;48.176;11.792;2023-09-07T11:53:33;26.30;1.00
2657;DHT22;1338;48.176;11.792;2023-09-07T11:56:04;26.40;1.00
2657;DHT22;1338;48.176;11.792;2023-09-07T11:58:32;26.50;1.00
2657;DHT22;1338;48.176;11.792;2023-09-07T12:01:01;27.30;1.00
2657;DHT22;1338;48.176;11.792;2023-09-07T12:03:31;26.40;1.00
2657;DHT22;1338;48.176;11.792;2023-09-07T12:06:03;25.60;1.00
2657;DHT22;1338;48.176;11.792;2023-09-07T12:08:31;26.50;1.00
2657;DHT22;1338;48.176;11.792;2023-09-07T12:11:00;26.20;1.00
2657;DHT22;1338;48.176;11.792;2023-09-07T12:13:30;27.00;1.00
2657;DHT22;1338;48.176;11.792;2023-09-07T12:15:59;26.90;1.00
2657;DHT22;1338;48.176;11.792;2023-09-07T12:18:30;26.60;1.00
2657;DHT22;1338;48.176;11.792;2023-09-07T12:21:12;27.80;1.00
2657;DHT22;1338;48.176;11.792;2023-09-07T12:23:41;27.10;1.00
2657;DHT22;1338;48.176;11.792;2023-09-07T12:26:11;27.80;1.00
2657;DHT22;1338;48.176;11.792;2023-09-07T12:28:42;28.10;1.00
2657;DHT22;1338;48.176;11.792;2023-09-07T12:31:11;27.40;1.00
2657;DHT22;1338;48.176;11.792;2023-09-07T12:33:42;27.60;99.90
2657;DHT22;1338;48.176;11.792;2023-09-07T12:36:16;27.70;99.90
2657;DHT22;1338;48.176;11.792;2023-09-07T12:38:49;28.60;99.90
2657;DHT22;1338;48.176;11.792;2023-09-07T12:41:22;28.10;99.90
2657;DHT22;1338;48.176;11.792;2023-09-07T12:43:50;28.30;99.90
2657;DHT22;1338;48.176;11.792;2023-09-07T12:46:20;28.50;99.90
2657;DHT22;1338;48.176;11.792;2023-09-07T12:48:49;28.00;99.90
2657;DHT22;1338;48.176;11.792;2023-09-07T12:51:19;27.90;99.90
2657;DHT22;1338;48.176;11.792;2023-09-07T12:53:48;28.20;99.90
2657;DHT22;1338;48.176;11.792;2023-09-07T12:56:16;28.40;99.90
2657;DHT22;1338;48.176;11.792;2023-09-07T12:58:46;28.80;99.90
2657;DHT22;1338;48.176;11.792;2023-09-07T13:01:14;29.40;99.90
2657;DHT22;1338;48.176;11.792;2023-09-07T13:03:43;29.50;99.90
2657;DHT22;1338;48.176;11.792;2023-09-07T13:06:12;28.90;99.90
2657;DHT22;1338;48.176;11.792;2023-09-07T13:08:45;28.10;99.90
2657;DHT22;1338;48.176;11.792;2023-09-07T13:11:14;29.10;99.90
2657;DHT22;1338;48.176;11.792;2023-09-07T13:13:43;28.80;99.90
2657;DHT22;1338;48.176;11.792;2023-09-07T13:16:11;29.20;99.90
2657;DHT22;1338;48.176;11.792;2023-09-07T13:18:40;29.40;99.90
2657;DHT22;1338;48.176;11.792;2023-09-07T13:21:09;28.80;99.90
2657;DHT22;1338;48.176;11.792;2023-09-07T13:23:39;29.00;99.90
2657;DHT22;1338;48.176;11.792;2023-09-07T13:26:10;29.40;99.90
2657;DHT22;1338;48.176;11.792;2023-09-07T13:28:39;29.20;99.90
2657;DHT22;1338;48.176;11.792;2023-09-07T13:31:08;29.00;99.90
2657;DHT22;1338;48.176;11.792;2023-09-07T13:33:37;28.90;99.90
2657;DHT22;1338;48.176;11.792;2023-09-07T13:36:06;28.50;99.90
2657;DHT22;1338;48.176;11.792;2023-09-07T13:38:36;28.50;99.90
2657;DHT22;1338;48.176;11.792;2023-09-07T13:41:05;29.30;99.90
2657;DHT22;1338;48.176;11.792;2023-09-07T13:43:35;30.50;99.90
2657;DHT22;1338;48.176;11.792;2023-09-07T13:46:04;30.90;99.90
2657;DHT22;1338;48.176;11.792;2023-09-07T13:48:33;30.30;99.90
2657;DHT22;1338;48.176;11.792;2023-09-07T13:51:02;30.40;99.90
2657;DHT22;1338;48.176;11.792;2023-09-07T13:53:30;30.10;99.90
2657;DHT22;1338;48.176;11.792;2023-09-07T13:56:01;30.60;99.90
2657;DHT22;1338;48.176;11.792;2023-09-07T13:58:29;30.20;99.90
2657;DHT22;1338;48.176;11.792;2023-09-07T14:01:00;30.60;99.90
2657;DHT22;1338;48.176;11.792;2023-09-07T14:03:29;30.80;99.90
2657;DHT22;1338;48.176;11.792;2023-09-07T14:05:59;31.10;99.90
2657;DHT22;1338;48.176;11.792;2023-09-07T14:08:28;29.40;99.90
2657;DHT22;1338;48.176;11.792;2023-09-07T14:10:57;30.40;99.90
2657;DHT22;1338;48.176;11.792;2023-09-07T14:13:27;31.10;99.90
2657;DHT22;1338;48.176;11.792;2023-09-07T14:15:56;30.20;99.90
2657;DHT22;1338;48.176;11.792;2023-09-07T14:18:27;29.40;99.90
2657;DHT22;1338;48.176;11.792;2023-09-07T14:20:56;31.20;99.90
2657;DHT22;1338;48.176;11.792;2023-09-07T14:23:25;30.60;99.90
2657;DHT22;1338;48.176;11.792;2023-09-07T14:25:54;31.90;99.90
2657;DHT22;1338;48.176;11.792;2023-09-07T14:28:23;29.90;99.90
2657;DHT22;1338;48.176;11.792;2023-09-07T14:30:53;30.30;99.90
2657;DHT22;1338;48.176;11.792;2023-09-07T14:33:23;31.90;99.90
2657;DHT22;1338;48.176;11.792;2023-09-07T14:35:53;33.00;99.90
2657;DHT22;1338;48.176;11.792;2023-09-07T14:38:22;31.70;99.90
2657;DHT22;1338;48.176;11.792;2023-09-07T14:40:54;30.40;99.90
2657;DHT22;1338;48.176;11.792;2023-09-07T14:45:52;31.20;99.90
2657;DHT22;1338;48.176;11.792;2023-09-07T14:48:22;31.90;99.90
2657;DHT22;1338;48.176;11.792;2023-09-07T14:50:52;31.00;99.90
2657;DHT22;1338;48.176;11.792;2023-09-07T14:53:21;31.70;99.90
2657;DHT22;1338;48.176;11.792;2023-09-07T15:03:21;34.00;99.90
2657;DHT22;1338;48.176;11.792;2023-09-07T15:05:50;34.20;99.90
2657;DHT22;1338;48.176;11.792;2023-09-07T15:08:20;30.60;99.90
2657;DHT22;1338;48.176;11.792;2023-09-07T15:13:19;31.40;99.90
2657;DHT22;1338;48.176;11.792;2023-09-07T15:15:49;31.50;99.90
2657;DHT22;1338;48.176;11.792;2023-09-07T15:18:17;32.50;99.90
2657;DHT22;1338;48.176;11.792;2023-09-07T15:20:46;30.10;99.90
2657;DHT22;1338;48.176;11.792;2023-09-07T15:23:15;32.80;99.90
2657;DHT22;1338;48.176;11.792;2023-09-07T15:25:45;33.20;99.90
2657;DHT22;1338;48.176;11.792;2023-09-07T15:28:14;31.30;99.90
2657;DHT22;1338;48.176;11.792;2023-09-07T15:30:43;32.00;99.90
2657;DHT22;1338;48.176;11.792;2023-09-07T15:33:12;32.50;99.90
2657;DHT22;1338;48.176;11.792;2023-09-07T15:35:40;30.70;99.90
2657;DHT22;1338;48.176;11.792;2023-09-07T15:38:11;31.40;99.90
2657;DHT22;1338;48.176;11.792;2023-09-07T15:40:41;33.20;99.90
2657;DHT22;1338;48.176;11.792;2023-09-07T15:43:14;33.80;99.90
2657;DHT22;1338;48.176;11.792;2023-09-07T15:45:43;32.20;99.90
2657;DHT22;1338;48.176;11.792;2023-09-07T15:48:13;32.50;99.90
2657;DHT22;1338;48.176;11.792;2023-09-07T15:50:42;31.40;99.90
2657;DHT22;1338;48.176;11.792;2023-09-07T15:53:14;31.10;99.90
2657;DHT22;1338;48.176;11.792;2023-09-07T15:55:43;32.30;99.90
2657;DHT22;1338;48.176;11.792;2023-09-07T15:58:14;31.80;99.90
2657;DHT22;1338;48.176;11.792;2023-09-07T16:00:44;32.50;99.90
2657;DHT22;1338;48.176;11.792;2023-09-07T16:03:13;32.60;99.90
2657;DHT22;1338;48.176;11.792;2023-09-07T16:05:43;31.40;99.90
2657;DHT22;1338;48.176;11.792;2023-09-07T16:08:13;31.60;99.90
2657;DHT22;1338;48.176;11.792;2023-09-07T16:10:41;32.20;99.90
2657;DHT22;1338;48.176;11.792;2023-09-07T16:13:10;32.60;99.90
2657;DHT22;1338;48.176;11.792;2023-09-07T16:15:40;34.20;99.90
2657;DHT22;1338;48.176;11.792;2023-09-07T16:18:08;31.40;99.90
2657;DHT22;1338;48.176;11.792;2023-09-07T16:20:37;31.10;99.90
2657;DHT22;1338;48.176;11.792;2023-09-07T16:23:06;32.10;99.90
2657;DHT22;1338;48.176;11.792;2023-09-07T16:25:37;31.40;99.90
2657;DHT22;1338;48.176;11.792;2023-09-07T16:28:06;31.20;99.90
2657;DHT22;1338;48.176;11.792;2023-09-07T16:30:35;33.00;99.90
2657;DHT22;1338;48.176;11.792;2023-09-07T16:33:06;30.90;99.90
2657;DHT22;1338;48.176;11.792;2023-09-07T16:35:35;30.70;99.90